createdAt,value
2019-06-26T00:02:28.317Z,101154.08
2019-06-26T00:05:00.220Z,101151.86
2019-06-26T00:07:31.605Z,101149.77
2019-06-26T00:10:03.409Z,101148.61
2019-06-26T00:12:35.444Z,101150.83
2019-06-26T00:15:07.780Z,101148.61
2019-06-26T00:17:39.076Z,101148.61
2019-06-26T00:20:12.635Z,101144.75
2019-06-26T00:22:43.821Z,101150.25
2019-06-26T00:25:16.034Z,101150.56
2019-06-26T00:27:47.905Z,101150.01
2019-06-26T00:30:20.018Z,101149.14
2019-06-26T00:32:51.875Z,101149.23
2019-06-26T00:35:23.700Z,101147.88
2019-06-26T00:37:55.557Z,101149.14
2019-06-26T00:40:27.839Z,101154.93
2019-06-26T00:42:59.585Z,101155.58
2019-06-26T00:45:30.744Z,101147.40
2019-06-26T00:48:02.579Z,101153.44
2019-06-26T00:50:34.567Z,101147.48
2019-06-26T00:53:06.585Z,101148.61
2019-06-26T00:55:38.494Z,101144.20
2019-06-26T00:58:10.416Z,101153.44
2019-06-26T01:00:45.918Z,101150.18
2019-06-26T01:03:17.056Z,101142.34
2019-06-26T01:05:48.970Z,101145.04
2019-06-26T01:08:22.115Z,101140.26
2019-06-26T01:10:54.031Z,101140.91
2019-06-26T01:13:26.035Z,101139.55
2019-06-26T01:15:58.028Z,101142.08
2019-06-26T01:18:30.002Z,101145.26
2019-06-26T01:21:05.056Z,101138.21
2019-06-26T01:23:36.959Z,101140.82
2019-06-26T01:26:09.004Z,101135.80
2019-06-26T01:28:40.896Z,101129.63
2019-06-26T01:31:12.860Z,101130.91
2019-06-26T01:33:44.168Z,101129.16
2019-06-26T01:36:15.391Z,101128.30
2019-06-26T01:38:47.478Z,101130.41
2019-06-26T01:41:19.352Z,101128.02
2019-06-26T01:43:52.370Z,101130.89
2019-06-26T01:46:23.708Z,101136.90
2019-06-26T01:48:54.960Z,101137.66
2019-06-26T01:51:27.836Z,101137.27
2019-06-26T01:53:59.336Z,101133.05
2019-06-26T01:56:31.816Z,101126.87
2019-06-26T01:59:03.774Z,101124.95
2019-06-26T02:01:35.901Z,101128.14
2019-06-26T02:04:15.594Z,101125.14
2019-06-26T02:06:47.377Z,101126.58
2019-06-26T02:09:22.731Z,101125.62
2019-06-26T02:11:53.955Z,101120.61
2019-06-26T02:14:31.129Z,101125.62
2019-06-26T02:16:58.195Z,101122.27
2019-06-26T02:19:30.283Z,101125.06
2019-06-26T02:22:08.902Z,101121.09
2019-06-26T02:24:40.432Z,101118.31
2019-06-26T02:27:17.714Z,101115.02
2019-06-26T02:29:52.088Z,101117.80
2019-06-26T02:32:24.063Z,101108.75
2019-06-26T02:34:56.077Z,101109.14
2019-06-26T02:37:27.426Z,101107.11
2019-06-26T02:39:58.543Z,101100.09
2019-06-26T02:42:31.843Z,101097.97
2019-06-26T02:45:03.359Z,101105.19
2019-06-26T02:47:35.284Z,101100.97
2019-06-26T02:50:08.085Z,101095.23
2019-06-26T02:52:42.609Z,101094.01
2019-06-26T02:55:14.798Z,101096.53
2019-06-26T02:57:46.077Z,101097.00
2019-06-26T03:00:22.333Z,101097.56
2019-06-26T03:02:53.655Z,101097.20
2019-06-26T03:05:26.951Z,101096.42
2019-06-26T03:07:58.796Z,101089.97
2019-06-26T03:10:30.695Z,101089.47
2019-06-26T03:13:01.909Z,101090.13
2019-06-26T03:15:33.747Z,101092.25
2019-06-26T03:18:05.103Z,101088.68
2019-06-26T03:20:42.371Z,101089.07
2019-06-26T03:23:13.591Z,101093.69
2019-06-26T03:25:45.485Z,101093.89
2019-06-26T03:28:17.371Z,101098.41
2019-06-26T03:30:49.295Z,101096.09
2019-06-26T03:33:21.192Z,101098.70
2019-06-26T03:35:52.408Z,101098.69
2019-06-26T03:38:24.163Z,101096.92
2019-06-26T03:40:55.380Z,101097.90
2019-06-26T03:43:26.527Z,101092.76
2019-06-26T03:45:58.578Z,101093.53
2019-06-26T03:48:31.475Z,101094.40
2019-06-26T03:51:02.811Z,101097.69
2019-06-26T03:53:34.631Z,101096.05
2019-06-26T03:56:06.548Z,101094.31
2019-06-26T03:58:38.439Z,101097.38
2019-06-26T04:01:14.060Z,101093.61
2019-06-26T04:03:50.325Z,101088.84
2019-06-26T04:06:22.181Z,101094.50
2019-06-26T04:08:54.044Z,101092.77
2019-06-26T04:11:25.330Z,101094.47
2019-06-26T04:14:20.971Z,101092.24
2019-06-26T04:20:03.151Z,101092.48
2019-06-26T04:22:35.014Z,101087.33
2019-06-26T04:25:07.666Z,101092.44
2019-06-26T04:27:38.858Z,101091.53
2019-06-26T04:30:11.274Z,101099.24
2019-06-26T04:32:42.654Z,101091.31
2019-06-26T04:35:13.879Z,101100.05
2019-06-26T04:37:45.734Z,101095.16
2019-06-26T04:40:20.292Z,101095.50
2019-06-26T04:42:50.802Z,101092.62
2019-06-26T04:45:21.996Z,101096.25
2019-06-26T04:47:53.881Z,101088.09
2019-06-26T04:50:25.835Z,101088.55
2019-06-26T04:52:57.075Z,101089.84
2019-06-26T04:55:28.854Z,101096.18
2019-06-26T04:58:00.204Z,101102.94
2019-06-26T05:00:33.230Z,101098.06
2019-06-26T05:03:04.454Z,101098.39
2019-06-26T05:05:39.986Z,101103.62
2019-06-26T05:08:10.311Z,101100.83
2019-06-26T05:10:42.145Z,101104.96
2019-06-26T05:13:13.985Z,101097.64
2019-06-26T05:15:45.920Z,101096.80
2019-06-26T05:18:17.766Z,101099.08
2019-06-26T05:20:49.647Z,101095.07
2019-06-26T05:23:20.922Z,101097.91
2019-06-26T05:25:52.779Z,101097.46
2019-06-26T05:28:24.741Z,101098.11
2019-06-26T05:30:56.088Z,101103.64
2019-06-26T05:33:27.264Z,101107.08
2019-06-26T05:35:58.409Z,101103.36
2019-06-26T05:38:30.239Z,101102.16
2019-06-26T05:41:01.459Z,101099.36
2019-06-26T05:43:33.327Z,101103.44
2019-06-26T05:46:05.216Z,101105.45
2019-06-26T05:48:36.489Z,101105.39
2019-06-26T05:51:08.491Z,101103.94
2019-06-26T05:53:40.506Z,101102.75
2019-06-26T05:56:13.462Z,101109.01
2019-06-26T05:58:45.471Z,101107.86
2019-06-26T06:01:17.490Z,101103.75
2019-06-26T06:03:49.366Z,101094.66
2019-06-26T06:06:22.938Z,101101.47
2019-06-26T06:08:54.927Z,101101.70
2019-06-26T06:11:26.864Z,101099.84
2019-06-26T06:13:58.130Z,101101.15
2019-06-26T06:16:45.947Z,101102.38
2019-06-26T06:19:03.808Z,101106.17
2019-06-26T06:21:35.742Z,101104.81
2019-06-26T06:24:10.702Z,101105.17
2019-06-26T06:26:42.547Z,101105.54
2019-06-26T06:29:14.507Z,101108.00
2019-06-26T06:31:46.549Z,101107.74
2019-06-26T06:34:20.301Z,101114.99
2019-06-26T06:36:53.805Z,101110.91
2019-06-26T06:39:30.846Z,101107.05
2019-06-26T06:42:04.898Z,101114.23
2019-06-26T06:44:36.109Z,101115.53
2019-06-26T06:47:09.030Z,101115.95
2019-06-26T06:49:40.926Z,101106.61
2019-06-26T06:52:12.109Z,101105.58
2019-06-26T06:54:43.944Z,101111.89
2019-06-26T06:57:15.789Z,101110.48
2019-06-26T06:59:47.046Z,101108.13
2019-06-26T07:02:18.245Z,101108.77
2019-06-26T07:04:50.042Z,101103.33
2019-06-26T07:07:21.929Z,101101.98
2019-06-26T07:09:54.197Z,101102.06
2019-06-26T07:12:26.153Z,101107.17
2019-06-26T07:14:57.434Z,101106.45
2019-06-26T07:17:29.257Z,101112.77
2019-06-26T07:20:01.182Z,101105.44
2019-06-26T07:22:33.326Z,101115.13
2019-06-26T07:25:06.476Z,101109.56
2019-06-26T07:27:39.380Z,101110.41
2019-06-26T07:30:12.641Z,101107.84
2019-06-26T07:32:44.433Z,101110.33
2019-06-26T07:35:15.662Z,101113.18
2019-06-26T07:37:47.485Z,101113.47
2019-06-26T07:40:23.044Z,101120.28
2019-06-26T07:43:56.491Z,101121.54
2019-06-26T07:46:23.531Z,101131.82
2019-06-26T07:48:57.750Z,101130.28
2019-06-26T07:51:29.845Z,101125.09
2019-06-26T07:54:01.736Z,101133.08
2019-06-26T07:56:34.886Z,101129.64
2019-06-26T07:59:06.684Z,101130.00
2019-06-26T08:01:43.993Z,101133.27
2019-06-26T08:04:21.368Z,101125.52
2019-06-26T08:06:53.916Z,101125.97
2019-06-26T08:10:06.022Z,101129.33
2019-06-26T08:12:39.228Z,101131.49
2019-06-26T08:15:10.769Z,101124.91
2019-06-26T08:17:59.174Z,101125.65
2019-06-26T08:20:55.374Z,101123.64
2019-06-26T08:23:19.245Z,101124.00
2019-06-26T08:25:54.264Z,101128.81
2019-06-26T08:29:06.424Z,101118.91
2019-06-26T08:37:21.305Z,101129.44
2019-06-26T08:39:23.080Z,101128.73
2019-06-26T08:42:24.572Z,101136.95
2019-06-26T08:45:07.064Z,101124.47
2019-06-26T08:49:24.866Z,101128.27
2019-06-26T08:51:31.603Z,101127.20
2019-06-26T08:54:05.069Z,101136.09
2019-06-26T08:56:38.730Z,101134.09
2019-06-26T08:59:15.364Z,101136.52
2019-06-26T09:01:47.509Z,101137.61
2019-06-26T09:04:19.478Z,101143.33
2019-06-26T09:06:51.500Z,101138.73
2019-06-26T09:09:23.421Z,101141.80
2019-06-26T09:11:57.093Z,101142.88
2019-06-26T09:14:29.353Z,101131.52
2019-06-26T09:17:04.300Z,101135.00
2019-06-26T09:19:47.856Z,101129.98
2019-06-26T09:22:21.896Z,101129.13
2019-06-26T09:24:58.587Z,101120.25
2019-06-26T09:27:30.126Z,101126.46
2019-06-26T09:30:07.865Z,101128.69
2019-06-26T09:32:40.270Z,101128.50
2019-06-26T09:35:21.473Z,101128.20
2019-06-26T09:37:53.071Z,101121.72
2019-06-26T09:40:25.220Z,101125.34
2019-06-26T09:42:56.633Z,101123.45
2019-06-26T09:45:33.056Z,101120.56
2019-06-26T09:48:52.142Z,101121.77
2019-06-26T09:51:55.686Z,101120.23
2019-06-26T09:54:26.329Z,101120.23
2019-06-26T09:56:58.487Z,101121.83
2019-06-26T09:59:30.568Z,101115.28
2019-06-26T10:02:02.482Z,101122.14
2019-06-26T10:04:34.355Z,101115.97
2019-06-26T10:07:06.516Z,101115.28
2019-06-26T10:10:11.854Z,101104.98
2019-06-26T10:12:46.652Z,101114.06
2019-06-26T10:15:19.471Z,101107.38
2019-06-26T10:17:51.360Z,101105.97
2019-06-26T10:20:23.996Z,101113.17
2019-06-26T10:22:56.195Z,101107.38
2019-06-26T10:25:27.466Z,101105.28
2019-06-26T10:28:01.336Z,101098.41
2019-06-26T10:30:36.887Z,101099.07
2019-06-26T10:33:09.456Z,101099.22
2019-06-26T10:35:44.163Z,101094.71
2019-06-26T10:38:18.587Z,101108.40
2019-06-26T10:40:51.176Z,101107.54
2019-06-26T10:43:41.676Z,101109.94
2019-06-26T10:46:13.872Z,101092.91
2019-06-26T10:48:46.164Z,101091.55
2019-06-26T10:51:21.190Z,101089.34
2019-06-26T10:53:53.226Z,101089.81
2019-06-26T10:56:28.651Z,101082.20
2019-06-26T10:59:03.108Z,101083.23
2019-06-26T11:01:35.381Z,101086.36
2019-06-26T11:04:07.573Z,101081.53
2019-06-26T11:06:42.393Z,101076.59
2019-06-26T11:09:13.767Z,101069.89
2019-06-26T11:11:45.669Z,101074.13
2019-06-26T11:14:17.596Z,101075.52
2019-06-26T11:16:49.580Z,101059.16
2019-06-26T11:19:21.569Z,101066.09
2019-06-26T11:21:53.512Z,101058.48
2019-06-26T11:24:28.520Z,101062.84
2019-06-26T11:26:59.700Z,101059.80
2019-06-26T11:29:31.614Z,101061.98
2019-06-26T11:32:03.527Z,101052.58
2019-06-26T11:34:35.738Z,101056.91
2019-06-26T11:37:07.593Z,101047.79
2019-06-26T11:39:39.512Z,101039.00
2019-06-26T11:42:11.524Z,101043.14
2019-06-26T11:44:43.462Z,101028.33
2019-06-26T11:47:15.413Z,101035.43
2019-06-26T11:49:59.281Z,101037.09
2019-06-26T11:52:20.999Z,101031.63
2019-06-26T11:55:02.460Z,101023.78
2019-06-26T11:57:26.569Z,101020.12
2019-06-26T11:59:58.541Z,101022.09
2019-06-26T12:02:30.428Z,101026.50
2019-06-26T12:05:02.391Z,101032.72
2019-06-26T12:07:34.315Z,101018.78
2019-06-26T12:10:05.971Z,101024.23
2019-06-26T12:12:37.836Z,101023.19
2019-06-26T12:15:10.487Z,101027.16
2019-06-26T12:17:42.646Z,101019.52
2019-06-26T12:20:19.430Z,101024.34
2019-06-26T12:22:48.478Z,101009.70
2019-06-26T12:25:20.554Z,101011.69
2019-06-26T12:27:52.531Z,101005.80
2019-06-26T12:30:24.541Z,101004.31
2019-06-26T12:33:02.994Z,100992.09
2019-06-26T12:35:30.108Z,101002.48
2019-06-26T12:38:02.147Z,101002.48
2019-06-26T12:40:33.938Z,100997.83
2019-06-26T12:43:16.463Z,100996.03
2019-06-26T12:45:55.521Z,100991.44
2019-06-26T12:48:41.482Z,100999.84
2019-06-26T12:51:51.965Z,100980.72
2019-06-26T12:55:32.682Z,100990.20
2019-06-26T12:58:12.697Z,100995.78
2019-06-26T13:00:52.194Z,100993.61
2019-06-26T13:03:40.551Z,100990.19
2019-06-26T13:06:14.221Z,100979.87
2019-06-26T13:08:48.771Z,100976.17
2019-06-26T13:12:31.961Z,100984.41
2019-06-26T13:15:32.449Z,100984.16
2019-06-26T13:22:59.964Z,100985.92
2019-06-26T13:26:44.541Z,100981.27
2019-06-26T13:34:20.873Z,100972.09
2019-06-26T13:38:22.649Z,100968.10
2019-06-26T13:42:24.290Z,100972.36
2019-06-26T13:46:07.473Z,100962.48
2019-06-26T13:50:08.534Z,100962.98
2019-06-26T13:54:10.559Z,100969.27
2019-06-26T13:57:00.217Z,100959.30
2019-06-26T13:59:31.445Z,100962.97
2019-06-26T14:02:03.250Z,100965.87
2019-06-26T14:04:34.618Z,100946.34
2019-06-26T14:07:08.568Z,100953.59
2019-06-26T14:09:39.447Z,100945.67
2019-06-26T14:12:11.478Z,100950.00
2019-06-26T14:14:56.695Z,100939.34
2019-06-26T14:17:16.445Z,100947.20
2019-06-26T14:19:48.273Z,100942.23
2019-06-26T14:22:20.170Z,100940.42
2019-06-26T14:24:54.227Z,100944.61
2019-06-26T14:27:26.244Z,100933.50
2019-06-26T14:29:58.131Z,100928.33
2019-06-26T14:32:30.045Z,100929.07
2019-06-26T14:35:01.945Z,100932.70
2019-06-26T14:37:34.259Z,100929.85
2019-06-26T14:40:06.801Z,100926.09
2019-06-26T14:42:38.715Z,100923.33
2019-06-26T14:45:11.245Z,100931.05
2019-06-26T14:47:42.437Z,100924.69
2019-06-26T14:50:14.812Z,100928.33
2019-06-26T14:52:46.614Z,100925.31
2019-06-26T14:55:18.734Z,100926.97
2019-06-26T14:57:50.657Z,100928.28
2019-06-26T15:00:22.730Z,100921.50
2019-06-26T15:02:55.930Z,100920.47
2019-06-26T15:05:27.839Z,100925.39
2019-06-26T15:07:59.737Z,100917.56
2019-06-26T15:10:33.082Z,100908.44
2019-06-26T15:13:05.050Z,100908.73
2019-06-26T15:15:36.960Z,100903.96
2019-06-26T15:18:11.987Z,100904.97
2019-06-26T15:20:44.219Z,100905.69
2019-06-26T15:23:16.181Z,100892.47
2019-06-26T15:25:48.360Z,100890.17
2019-06-26T15:28:20.371Z,100895.20
2019-06-26T15:30:52.293Z,100899.45
2019-06-26T15:33:23.731Z,100897.66
2019-06-26T15:35:55.709Z,100889.81
2019-06-26T15:38:28.705Z,100892.70
2019-06-26T15:41:00.658Z,100888.22
2019-06-26T15:43:32.544Z,100882.23
2019-06-26T15:46:04.509Z,100884.45
2019-06-26T15:48:36.581Z,100884.34
2019-06-26T15:51:08.941Z,100885.02
2019-06-26T15:53:40.917Z,100887.48
2019-06-26T15:56:12.853Z,100885.73
2019-06-26T15:58:44.746Z,100886.35
2019-06-26T16:01:17.085Z,100880.69
2019-06-26T16:03:49.112Z,100875.20
2019-06-26T16:06:21.204Z,100886.33
2019-06-26T16:08:53.307Z,100887.55
2019-06-26T16:11:26.445Z,100883.77
2019-06-26T16:13:59.377Z,100885.61
2019-06-26T16:16:33.742Z,100881.59
2019-06-26T16:19:11.585Z,100880.87
2019-06-26T16:21:43.511Z,100886.06
2019-06-26T16:24:15.536Z,100885.55
2019-06-26T16:26:47.838Z,100884.58
2019-06-26T16:29:19.386Z,100881.69
2019-06-26T16:31:51.635Z,100880.73
2019-06-26T16:34:22.847Z,100875.50
2019-06-26T16:36:54.809Z,100872.95
2019-06-26T16:39:26.225Z,100874.80
2019-06-26T16:41:58.042Z,100868.20
2019-06-26T16:44:29.605Z,100872.03
2019-06-26T16:47:01.662Z,100866.06
2019-06-26T16:49:33.965Z,100868.88
2019-06-26T16:52:06.116Z,100862.23
2019-06-26T16:54:38.043Z,100860.11
2019-06-26T16:57:10.266Z,100868.61
2019-06-26T16:59:42.258Z,100866.72
2019-06-26T17:02:14.640Z,100865.80
2019-06-26T17:04:46.881Z,100865.97
2019-06-26T17:07:19.731Z,100860.97
2019-06-26T17:09:53.050Z,100866.19
2019-06-26T17:12:24.962Z,100867.00
2019-06-26T17:14:57.323Z,100863.50
2019-06-26T17:17:31.585Z,100864.77
2019-06-26T17:20:03.582Z,100871.24
2019-06-26T17:22:35.481Z,100861.91
2019-06-26T17:25:07.532Z,100862.12
2019-06-26T17:27:39.424Z,100866.80
2019-06-26T17:30:11.564Z,100871.69
2019-06-26T17:32:44.427Z,100860.13
2019-06-26T17:35:16.681Z,100860.97
2019-06-26T17:37:48.631Z,100865.66
2019-06-26T17:40:22.542Z,100859.54
2019-06-26T17:43:08.210Z,100869.64
2019-06-26T17:45:29.227Z,100870.80
2019-06-26T17:48:01.220Z,100863.03
2019-06-26T17:50:33.567Z,100872.28
2019-06-26T17:53:20.575Z,100872.69
2019-06-26T17:55:41.579Z,100875.21
2019-06-26T17:58:13.600Z,100868.64
2019-06-26T18:00:45.498Z,100866.32
2019-06-26T18:03:19.252Z,100868.11
2019-06-26T18:05:51.336Z,100871.09
2019-06-26T18:08:23.345Z,100875.77
2019-06-26T18:10:55.616Z,100874.16
2019-06-26T18:13:27.554Z,100879.02
2019-06-26T18:16:00.050Z,100880.08
2019-06-26T18:18:31.361Z,100883.20
2019-06-26T18:21:05.512Z,100880.10
2019-06-26T18:23:38.744Z,100886.46
2019-06-26T18:26:13.375Z,100888.28
2019-06-26T18:28:43.977Z,100893.53
2019-06-26T18:31:17.417Z,100894.73
2019-06-26T18:33:49.303Z,100894.56
2019-06-26T18:36:21.748Z,100903.00
2019-06-26T18:38:53.729Z,100906.64
2019-06-26T18:41:25.709Z,100900.81
2019-06-26T18:43:57.663Z,100904.87
2019-06-26T18:46:30.288Z,100902.33
2019-06-26T18:49:03.054Z,100910.97
2019-06-26T18:51:35.518Z,100909.27
2019-06-26T18:54:07.078Z,100897.27
2019-06-26T18:56:38.639Z,100905.18
2019-06-26T18:59:09.932Z,100911.67
2019-06-26T19:01:41.136Z,100913.89
2019-06-26T19:04:12.501Z,100914.76
2019-06-26T19:06:43.788Z,100915.42
2019-06-26T19:09:15.010Z,100919.02
2019-06-26T19:11:46.504Z,100927.78
2019-06-26T19:14:18.528Z,100925.64
2019-06-26T19:16:50.063Z,100937.61
2019-06-26T19:19:24.281Z,100935.19
2019-06-26T19:21:55.397Z,100945.48
2019-06-26T19:24:26.754Z,100951.97
2019-06-26T19:26:59.350Z,100946.71
2019-06-26T19:29:30.645Z,100954.55
2019-06-26T19:32:02.764Z,100957.09
2019-06-26T19:34:34.836Z,100971.25
2019-06-26T19:37:07.970Z,100973.63
2019-06-26T19:39:41.278Z,100977.30
2019-06-26T19:42:13.104Z,100975.48
2019-06-26T19:44:45.392Z,100977.75
2019-06-26T19:47:16.761Z,100984.09
2019-06-26T19:49:48.415Z,100982.66
2019-06-26T19:52:19.703Z,100989.08
2019-06-26T19:54:51.292Z,100993.69
2019-06-26T19:57:22.683Z,100989.51
2019-06-26T19:59:54.249Z,101000.36
2019-06-26T20:02:25.431Z,100996.03
2019-06-26T20:04:57.331Z,101001.41
2019-06-26T20:07:29.476Z,100997.88
2019-06-26T20:10:03.337Z,101003.98
2019-06-26T20:12:35.366Z,101005.28
2019-06-26T20:15:08.807Z,101009.89
2019-06-26T20:17:40.801Z,101002.38
2019-06-26T20:20:12.868Z,101010.37
2019-06-26T20:22:45.508Z,101017.70
2019-06-26T20:25:23.099Z,101011.47
2019-06-26T20:27:57.311Z,101017.36
2019-06-26T20:30:31.841Z,101022.48
2019-06-26T20:33:03.720Z,101019.31
2019-06-26T20:35:38.777Z,101020.02
2019-06-26T20:38:08.968Z,101025.64
2019-06-26T20:40:41.036Z,101032.70
2019-06-26T20:43:12.327Z,101035.48
2019-06-26T20:45:43.523Z,101042.67
2019-06-26T20:48:14.771Z,101045.70
2019-06-26T20:50:46.015Z,101043.11
2019-06-26T20:53:17.207Z,101053.66
2019-06-26T20:55:49.139Z,101053.72
2019-06-26T20:58:21.082Z,101054.03
2019-06-26T21:00:52.272Z,101050.44
2019-06-26T21:03:25.250Z,101052.72
2019-06-26T21:05:56.447Z,101051.03
2019-06-26T21:08:29.575Z,101054.98
2019-06-26T21:11:00.492Z,101053.67
2019-06-26T21:13:32.366Z,101052.38
2019-06-26T21:16:04.214Z,101050.52
2019-06-26T21:18:36.263Z,101055.74
2019-06-26T21:21:09.034Z,101054.92
2019-06-26T21:23:42.015Z,101063.89
2019-06-26T21:26:18.144Z,101065.29
2019-06-26T21:29:00.825Z,101064.42
2019-06-26T21:31:36.838Z,101066.23
2019-06-26T21:34:10.787Z,101066.38
2019-06-26T21:36:44.351Z,101068.77
2019-06-26T21:39:16.297Z,101082.77
2019-06-26T21:41:48.274Z,101069.83
2019-06-26T21:44:20.206Z,101076.88
2019-06-26T21:46:52.078Z,101068.95
2019-06-26T21:49:23.290Z,101079.41
2019-06-26T21:51:54.382Z,101082.06
2019-06-26T21:54:26.186Z,101087.10
2019-06-26T21:57:15.029Z,101076.94
2019-06-26T22:00:05.602Z,101083.00
2019-06-26T22:03:00.238Z,101086.29
2019-06-26T22:05:33.486Z,101083.48
2019-06-26T22:08:14.070Z,101098.94
2019-06-26T22:10:56.034Z,101098.11
2019-06-26T22:13:31.032Z,101093.56
2019-06-26T22:16:03.194Z,101104.44
2019-06-26T22:18:34.677Z,101098.69
2019-06-26T22:21:05.985Z,101108.19
2019-06-26T22:23:37.814Z,101108.70
2019-06-26T22:26:09.761Z,101107.11
2019-06-26T22:28:41.738Z,101110.91
2019-06-26T22:31:12.976Z,101105.86
2019-06-26T22:33:44.130Z,101110.06
2019-06-26T22:36:15.281Z,101115.77
2019-06-26T22:38:47.161Z,101121.31
2019-06-26T22:41:18.381Z,101123.55
2019-06-26T22:43:50.233Z,101119.28
2019-06-26T22:46:22.234Z,101121.02
2019-06-26T22:48:54.238Z,101124.49
2019-06-26T22:51:26.137Z,101131.75
2019-06-26T22:53:58.124Z,101131.63
2019-06-26T22:56:29.991Z,101129.41
2019-06-26T22:59:01.902Z,101136.77
2019-06-26T23:01:33.834Z,101134.28
2019-06-26T23:04:05.094Z,101135.30
2019-06-26T23:06:37.626Z,101139.92
2019-06-26T23:09:09.081Z,101146.13
2019-06-26T23:11:40.880Z,101144.48
2019-06-26T23:14:12.848Z,101146.25
2019-06-26T23:16:44.759Z,101148.31
2019-06-26T23:19:16.646Z,101152.39
2019-06-26T23:21:47.846Z,101146.78
2019-06-26T23:24:18.974Z,101146.63
2019-06-26T23:26:51.094Z,101149.66
2019-06-26T23:29:22.925Z,101147.66
2019-06-26T23:31:54.813Z,101157.45
2019-06-26T23:34:26.667Z,101157.76
2019-06-26T23:36:58.537Z,101164.23
2019-06-26T23:39:29.846Z,101162.47
2019-06-26T23:42:01.734Z,101169.41
2019-06-26T23:44:34.654Z,101171.36
2019-06-26T23:47:05.983Z,101174.55
2019-06-26T23:49:40.590Z,101173.95
2019-06-26T23:52:11.885Z,101175.00
2019-06-26T23:54:43.776Z,101179.72
2019-06-26T23:57:17.357Z,101175.64
2019-06-26T23:59:48.539Z,101176.88
